createdAt,value
2018-12-02T00:01:56.203Z,100082.18
2018-12-02T00:04:26.955Z,100086.84
2018-12-02T00:06:56.214Z,100079.98
2018-12-02T00:09:25.484Z,100075.57
2018-12-02T00:11:54.683Z,100065.70
2018-12-02T00:14:23.919Z,100053.72
2018-12-02T00:16:53.995Z,100052.11
2018-12-02T00:19:23.235Z,100059.26
2018-12-02T00:21:52.828Z,100048.35
2018-12-02T00:24:22.045Z,100038.86
2018-12-02T00:26:51.227Z,100042.30
2018-12-02T00:29:22.332Z,100038.11
2018-12-02T00:31:51.576Z,100040.09
2018-12-02T00:34:20.819Z,100043.59
2018-12-02T00:36:50.074Z,100035.25
2018-12-02T00:39:19.245Z,100028.35
2018-12-02T00:41:49.371Z,100024.25
2018-12-02T00:44:18.618Z,100027.95
2018-12-02T00:46:47.798Z,100032.80
2018-12-02T00:49:17.047Z,100019.25
2018-12-02T00:51:47.180Z,100017.60
2018-12-02T00:54:17.354Z,100010.11
2018-12-02T00:56:46.964Z,100001.24
2018-12-02T00:59:16.327Z,99994.26
2018-12-02T01:01:45.528Z,99996.94
2018-12-02T01:04:14.739Z,99976.95
2018-12-02T01:06:44.935Z,99982.67
2018-12-02T01:09:14.143Z,99984.63
2018-12-02T01:11:43.430Z,99979.17
2018-12-02T01:14:13.801Z,99974.50
2018-12-02T01:16:42.999Z,99966.80
2018-12-02T01:19:13.611Z,99967.48
2018-12-02T01:21:42.798Z,99958.58
2018-12-02T01:24:11.975Z,99960.53
2018-12-02T01:26:41.252Z,99960.28
2018-12-02T01:29:10.495Z,99955.84
2018-12-02T01:31:40.602Z,99956.16
2018-12-02T01:34:09.794Z,99955.22
2018-12-02T01:36:38.990Z,99957.83
2018-12-02T01:39:09.012Z,99958.60
2018-12-02T01:41:38.258Z,99964.50
2018-12-02T01:44:09.806Z,99952.98
2018-12-02T01:46:38.972Z,99952.69
2018-12-02T01:49:08.202Z,99952.38
2018-12-02T01:51:38.779Z,99952.27
2018-12-02T01:54:08.084Z,99945.70
2018-12-02T01:56:37.838Z,99943.69
2018-12-02T01:59:07.483Z,99929.73
2018-12-02T02:01:36.660Z,99916.38
2018-12-02T02:04:06.247Z,99914.40
2018-12-02T02:06:36.763Z,99913.51
2018-12-02T02:09:09.180Z,99909.87
2018-12-02T02:11:39.419Z,99902.45
2018-12-02T02:14:08.621Z,99892.56
2018-12-02T02:16:38.271Z,99883.78
2018-12-02T02:19:07.515Z,99887.93
2018-12-02T02:21:37.222Z,99891.11
2018-12-02T02:24:06.735Z,99881.67
2018-12-02T02:26:36.666Z,99885.73
2018-12-02T02:29:07.252Z,99878.51
2018-12-02T02:31:36.444Z,99885.05
2018-12-02T02:34:06.658Z,99869.95
2018-12-02T02:36:35.836Z,99862.41
2018-12-02T02:39:07.705Z,99864.88
2018-12-02T02:41:37.100Z,99861.40
2018-12-02T02:44:06.307Z,99864.46
2018-12-02T02:46:36.012Z,99848.42
2018-12-02T02:49:05.359Z,99854.12
2018-12-02T02:51:35.464Z,99846.67
2018-12-02T02:54:04.930Z,99847.18
2018-12-02T02:56:34.076Z,99843.20
2018-12-02T02:59:03.826Z,99839.80
2018-12-02T03:01:33.222Z,99834.77
2018-12-02T03:04:03.119Z,99828.25
2018-12-02T03:06:32.324Z,99830.09
2018-12-02T03:09:02.631Z,99821.88
2018-12-02T03:11:32.263Z,99824.77
2018-12-02T03:14:01.473Z,99815.33
2018-12-02T03:16:32.411Z,99819.07
2018-12-02T03:19:01.574Z,99813.52
2018-12-02T03:21:30.809Z,99815.46
2018-12-02T03:24:00.443Z,99810.66
2018-12-02T03:26:29.595Z,99811.08
2018-12-02T03:28:59.334Z,99808.48
2018-12-02T03:31:28.527Z,99807.23
2018-12-02T03:33:57.767Z,99800.64
2018-12-02T03:36:27.663Z,99799.30
2018-12-02T03:38:56.864Z,99794.02
2018-12-02T03:41:27.720Z,99791.83
2018-12-02T03:43:56.876Z,99779.34
2018-12-02T03:46:27.349Z,99784.16
2018-12-02T03:48:57.004Z,99780.94
2018-12-02T03:51:27.118Z,99771.65
2018-12-02T03:53:57.138Z,99762.58
2018-12-02T03:56:26.307Z,99760.41
2018-12-02T03:58:55.495Z,99762.81
2018-12-02T04:01:25.001Z,99759.94
2018-12-02T04:03:56.415Z,99757.52
2018-12-02T04:06:25.591Z,99743.14
2018-12-02T04:08:54.815Z,99741.16
2018-12-02T04:11:23.979Z,99732.30
2018-12-02T04:13:53.114Z,99736.06
2018-12-02T04:16:23.108Z,99732.66
2018-12-02T04:18:52.294Z,99725.58
2018-12-02T04:21:21.453Z,99720.23
2018-12-02T04:23:51.263Z,99725.05
2018-12-02T04:26:20.451Z,99724.05
2018-12-02T04:28:51.497Z,99722.73
2018-12-02T04:31:20.772Z,99718.09
2018-12-02T04:33:49.905Z,99712.59
2018-12-02T04:36:19.144Z,99712.34
2018-12-02T04:38:48.344Z,99708.44
2018-12-02T04:41:18.428Z,99703.53
2018-12-02T04:43:47.670Z,99695.19
2018-12-02T04:46:18.170Z,99695.45
2018-12-02T04:48:47.354Z,99686.59
2018-12-02T04:51:16.530Z,99689.03
2018-12-02T04:53:47.478Z,99676.91
2018-12-02T04:56:16.712Z,99675.33
2018-12-02T04:58:45.926Z,99669.96
2018-12-02T05:01:15.256Z,99663.70
2018-12-02T05:03:44.411Z,99652.00
2018-12-02T05:06:14.557Z,99656.83
2018-12-02T05:08:43.799Z,99652.80
2018-12-02T05:11:13.003Z,99649.90
2018-12-02T05:13:42.159Z,99648.63
2018-12-02T05:16:11.345Z,99645.52
2018-12-02T05:18:41.923Z,99649.84
2018-12-02T05:21:11.116Z,99647.19
2018-12-02T05:23:41.620Z,99641.62
2018-12-02T05:26:10.775Z,99639.22
2018-12-02T05:28:40.464Z,99641.80
2018-12-02T05:31:10.152Z,99638.76
2018-12-02T05:33:39.338Z,99633.61
2018-12-02T05:36:08.479Z,99623.07
2018-12-02T05:38:37.775Z,99628.34
2018-12-02T05:41:08.515Z,99624.59
2018-12-02T05:43:37.721Z,99618.64
2018-12-02T05:46:08.588Z,99617.86
2018-12-02T05:48:37.749Z,99606.95
2018-12-02T05:51:07.559Z,99586.71
2018-12-02T05:53:37.266Z,99587.45
2018-12-02T05:56:06.567Z,99577.70
2018-12-02T05:58:35.737Z,99578.28
2018-12-02T06:01:05.235Z,99566.75
2018-12-02T06:03:35.787Z,99571.96
2018-12-02T06:06:05.017Z,99570.16
2018-12-02T06:08:34.712Z,99562.29
2018-12-02T06:11:03.910Z,99565.63
2018-12-02T06:13:33.098Z,99555.52
2018-12-02T06:16:03.387Z,99569.19
2018-12-02T06:18:32.570Z,99561.71
2018-12-02T06:21:01.872Z,99554.27
2018-12-02T06:23:32.096Z,99555.99
2018-12-02T06:26:01.294Z,99557.53
2018-12-02T06:28:32.072Z,99560.68
2018-12-02T06:31:01.374Z,99563.75
2018-12-02T06:33:30.590Z,99568.51
2018-12-02T06:35:59.800Z,99564.37
2018-12-02T06:38:29.055Z,99560.22
2018-12-02T06:40:59.215Z,99571.73
2018-12-02T06:43:28.482Z,99576.67
2018-12-02T06:45:58.675Z,99566.92
2018-12-02T06:48:27.867Z,99575.02
2018-12-02T06:50:57.143Z,99587.41
2018-12-02T06:53:28.371Z,99580.31
2018-12-02T06:56:16.636Z,99576.45
2018-12-02T06:58:59.800Z,99578.35
2018-12-02T07:03:44.125Z,99577.13
2018-12-02T07:06:13.413Z,99569.69
2018-12-02T07:08:43.493Z,99563.70
2018-12-02T07:11:12.672Z,99560.81
2018-12-02T07:13:42.418Z,99565.03
2018-12-02T07:16:12.041Z,99563.64
2018-12-02T07:18:42.005Z,99560.17
2018-12-02T07:21:17.346Z,99557.88
2018-12-02T07:23:51.163Z,99554.48
2018-12-02T07:26:21.000Z,99551.46
2018-12-02T07:28:50.197Z,99558.48
2018-12-02T07:31:19.571Z,99555.60
2018-12-02T07:34:04.319Z,99547.50
2018-12-02T07:36:54.215Z,99542.53
2018-12-02T07:39:54.779Z,99547.33
2018-12-02T07:42:23.940Z,99547.39
2018-12-02T07:44:54.835Z,99542.23
2018-12-02T07:47:24.546Z,99535.11
2018-12-02T07:49:53.711Z,99538.86
2018-12-02T07:52:22.871Z,99544.29
2018-12-02T07:54:52.688Z,99545.64
2018-12-02T07:57:22.414Z,99548.12
2018-12-02T07:59:52.044Z,99550.91
2018-12-02T08:02:21.368Z,99546.50
2018-12-02T08:04:50.569Z,99544.25
2018-12-02T08:07:19.810Z,99538.04
2018-12-02T08:09:50.239Z,99536.64
2018-12-02T08:12:19.878Z,99541.68
2018-12-02T08:14:49.059Z,99544.67
2018-12-02T08:17:18.833Z,99540.25
2018-12-02T08:19:48.001Z,99541.57
2018-12-02T08:22:17.716Z,99535.35
2018-12-02T08:24:47.332Z,99537.36
2018-12-02T08:27:16.485Z,99532.20
2018-12-02T08:29:45.679Z,99532.14
2018-12-02T08:32:14.899Z,99536.44
2018-12-02T08:34:45.812Z,99536.98
2018-12-02T08:37:15.484Z,99532.46
2018-12-02T08:39:44.661Z,99539.78
2018-12-02T08:42:13.844Z,99541.47
2018-12-02T08:44:43.243Z,99541.17
2018-12-02T08:47:12.941Z,99547.35
2018-12-02T08:49:42.653Z,99547.35
2018-12-02T08:52:11.927Z,99549.27
2018-12-02T08:54:41.126Z,99543.86
2018-12-02T08:57:10.319Z,99540.05
2018-12-02T08:59:40.593Z,99544.39
2018-12-02T09:02:10.167Z,99547.84
2018-12-02T09:04:39.395Z,99548.52
2018-12-02T09:07:08.599Z,99548.34
2018-12-02T09:09:37.757Z,99553.02
2018-12-02T09:12:07.889Z,99549.14
2018-12-02T09:14:37.817Z,99554.76
2018-12-02T09:17:07.168Z,99552.02
2018-12-02T09:19:36.348Z,99549.13
2018-12-02T09:22:08.924Z,99548.73
2018-12-02T09:24:39.843Z,99549.52
2018-12-02T09:27:09.015Z,99548.22
2018-12-02T09:29:38.302Z,99545.16
2018-12-02T09:32:07.548Z,99541.97
2018-12-02T09:34:37.683Z,99545.27
2018-12-02T09:37:07.173Z,99548.12
2018-12-02T09:39:36.348Z,99546.98
2018-12-02T09:42:05.853Z,99552.76
2018-12-02T09:44:35.647Z,99544.59
2018-12-02T09:47:07.043Z,99548.80
2018-12-02T09:49:36.411Z,99548.53
2018-12-02T09:52:06.172Z,99552.41
2018-12-02T09:54:35.395Z,99555.23
2018-12-02T09:57:05.399Z,99561.63
2018-12-02T09:59:35.574Z,99562.77
2018-12-02T10:02:05.171Z,99566.78
2018-12-02T10:04:34.461Z,99560.51
2018-12-02T10:07:03.651Z,99556.34
2018-12-02T10:09:33.192Z,99555.20
2018-12-02T10:12:02.905Z,99560.61
2018-12-02T10:14:32.235Z,99565.00
2018-12-02T10:17:01.433Z,99558.58
2018-12-02T10:19:31.935Z,99558.28
2018-12-02T10:22:01.543Z,99565.80
2018-12-02T10:24:31.100Z,99557.00
2018-12-02T10:27:00.357Z,99563.53
2018-12-02T10:29:29.485Z,99555.75
2018-12-02T10:31:59.943Z,99561.23
2018-12-02T10:34:30.494Z,99557.50
2018-12-02T10:37:00.158Z,99554.35
2018-12-02T10:39:29.408Z,99553.27
2018-12-02T10:41:58.897Z,99549.77
2018-12-02T10:44:28.068Z,99553.50
2018-12-02T10:46:58.518Z,99541.30
2018-12-02T10:49:27.437Z,99537.30
2018-12-02T10:51:56.677Z,99532.73
2018-12-02T10:54:25.850Z,99542.23
2018-12-02T10:56:56.715Z,99543.94
2018-12-02T10:59:27.379Z,99542.95
2018-12-02T11:02:04.175Z,99539.39
2018-12-02T11:04:33.448Z,99545.49
2018-12-02T11:07:02.666Z,99541.98
2018-12-02T11:09:32.371Z,99533.48
2018-12-02T11:12:02.085Z,99537.09
2018-12-02T11:14:31.270Z,99538.00
2018-12-02T11:17:01.619Z,99543.52
2018-12-02T11:19:32.181Z,99532.73
2018-12-02T11:22:01.856Z,99531.84
2018-12-02T11:24:31.117Z,99538.56
2018-12-02T11:27:00.319Z,99529.17
2018-12-02T11:29:29.525Z,99535.98
2018-12-02T11:31:59.740Z,99539.88
2018-12-02T11:34:28.905Z,99533.52
2018-12-02T11:36:58.097Z,99531.69
2018-12-02T11:39:27.451Z,99544.37
2018-12-02T11:41:56.744Z,99542.43
2018-12-02T11:44:27.990Z,99536.52
2018-12-02T11:46:57.438Z,99541.62
2018-12-02T11:49:26.595Z,99536.52
2018-12-02T11:51:55.809Z,99540.06
2018-12-02T11:54:25.008Z,99554.27
2018-12-02T11:56:55.150Z,99549.23
2018-12-02T11:59:24.445Z,99549.53
2018-12-02T12:01:53.675Z,99553.63
2018-12-02T12:04:22.891Z,99549.67
2018-12-02T12:06:52.088Z,99550.72
2018-12-02T12:09:23.414Z,99548.47
2018-12-02T12:11:52.611Z,99555.95
2018-12-02T12:14:22.002Z,99561.42
2018-12-02T12:16:51.209Z,99562.31
2018-12-02T12:19:20.527Z,99565.21
2018-12-02T12:21:50.753Z,99567.09
2018-12-02T12:24:19.936Z,99564.28
2018-12-02T12:26:49.115Z,99565.97
2018-12-02T12:29:18.353Z,99567.00
2018-12-02T12:31:47.534Z,99568.67
2018-12-02T12:34:18.579Z,99566.13
2018-12-02T12:36:47.796Z,99570.73
2018-12-02T12:39:16.968Z,99573.38
2018-12-02T12:41:46.308Z,99573.31
2018-12-02T12:44:15.581Z,99570.99
2018-12-02T12:46:45.736Z,99571.47
2018-12-02T12:49:14.916Z,99576.52
2018-12-02T12:51:45.057Z,99581.97
2018-12-02T12:54:14.244Z,99582.35
2018-12-02T12:56:43.436Z,99582.89
2018-12-02T12:59:14.012Z,99581.95
2018-12-02T13:01:43.207Z,99583.91
2018-12-02T13:04:12.514Z,99581.53
2018-12-02T13:06:41.860Z,99572.64
2018-12-02T13:09:11.023Z,99578.66
2018-12-02T13:11:41.959Z,99581.15
2018-12-02T13:14:12.663Z,99588.30
2018-12-02T13:16:41.861Z,99585.52
2018-12-02T13:19:11.045Z,99584.11
2018-12-02T13:21:41.584Z,99593.11
2018-12-02T13:24:11.638Z,99600.49
2018-12-02T13:26:40.886Z,99596.37
2018-12-02T13:29:10.401Z,99599.06
2018-12-02T13:31:39.589Z,99597.81
2018-12-02T13:34:08.824Z,99599.00
2018-12-02T13:36:39.050Z,99600.38
2018-12-02T13:39:10.606Z,99603.39
2018-12-02T13:41:39.829Z,99600.38
2018-12-02T13:44:09.188Z,99606.19
2018-12-02T13:46:38.871Z,99606.32
2018-12-02T13:49:09.399Z,99609.43
2018-12-02T13:51:38.789Z,99624.95
2018-12-02T13:54:13.258Z,99626.17
2018-12-02T13:56:43.087Z,99624.76
2018-12-02T13:59:12.267Z,99625.16
2018-12-02T14:01:41.532Z,99623.31
2018-12-02T14:04:11.672Z,99628.91
2018-12-02T14:06:40.965Z,99624.98
2018-12-02T14:09:11.604Z,99635.23
2018-12-02T14:11:40.874Z,99642.20
2018-12-02T14:14:10.931Z,99661.73
2018-12-02T14:17:00.980Z,99650.00
2018-12-02T14:19:34.309Z,99647.33
2018-12-02T14:22:00.317Z,99661.00
2018-12-02T14:24:30.890Z,99654.48
2018-12-02T14:27:00.142Z,99657.71
2018-12-02T14:29:36.471Z,99668.09
2018-12-02T14:32:10.031Z,99665.35
2018-12-02T14:34:39.399Z,99664.98
2018-12-02T14:37:08.607Z,99668.05
2018-12-02T14:39:38.829Z,99664.39
2018-12-02T14:42:08.173Z,99668.95
2018-12-02T14:44:37.590Z,99676.11
2018-12-02T14:47:06.978Z,99675.93
2018-12-02T14:49:36.419Z,99682.20
2018-12-02T14:52:07.852Z,99678.55
2018-12-02T14:54:37.179Z,99672.69
2018-12-02T14:57:06.416Z,99677.70
2018-12-02T14:59:35.600Z,99677.25
2018-12-02T15:02:04.836Z,99686.67
2018-12-02T15:04:34.915Z,99689.47
2018-12-02T15:07:04.160Z,99686.41
2018-12-02T15:09:33.443Z,99685.11
2018-12-02T15:12:02.656Z,99680.16
2018-12-02T15:14:31.833Z,99690.13
2018-12-02T15:17:04.162Z,99689.17
2018-12-02T15:19:33.439Z,99687.45
2018-12-02T15:22:02.736Z,99705.88
2018-12-02T15:24:32.083Z,99707.91
2018-12-02T15:27:01.684Z,99706.61
2018-12-02T15:29:31.334Z,99710.08
2018-12-02T15:32:00.665Z,99708.56
2018-12-02T15:34:29.823Z,99707.44
2018-12-02T15:36:59.027Z,99708.80
2018-12-02T15:39:29.729Z,99704.64
2018-12-02T15:41:58.931Z,99713.16
2018-12-02T15:44:28.120Z,99702.80
2018-12-02T15:46:57.357Z,99705.92
2018-12-02T15:49:26.660Z,99710.13
2018-12-02T15:51:57.285Z,99700.08
2018-12-02T15:54:26.551Z,99708.73
2018-12-02T15:56:55.823Z,99711.15
2018-12-02T15:59:25.022Z,99710.03
2018-12-02T16:01:54.396Z,99711.45
2018-12-02T16:04:25.436Z,99710.80
2018-12-02T16:06:54.742Z,99709.00
2018-12-02T16:09:24.533Z,99711.83
2018-12-02T16:11:54.061Z,99714.30
2018-12-02T16:14:23.699Z,99712.84
2018-12-02T16:16:53.588Z,99713.66
2018-12-02T16:19:22.752Z,99718.06
2018-12-02T16:21:51.968Z,99717.13
2018-12-02T16:24:22.980Z,99713.22
2018-12-02T16:26:53.282Z,99711.52
2018-12-02T16:29:22.484Z,99711.80
2018-12-02T16:31:51.828Z,99717.42
2018-12-02T16:34:21.600Z,99713.27
2018-12-02T16:36:50.216Z,99719.10
2018-12-02T16:39:20.520Z,99710.25
2018-12-02T16:41:49.758Z,99724.99
2018-12-02T16:44:18.974Z,99714.52
2018-12-02T16:46:49.623Z,99711.98
2018-12-02T16:49:18.847Z,99710.13
2018-12-02T16:51:50.239Z,99717.00
2018-12-02T16:54:19.679Z,99715.53
2018-12-02T16:56:49.083Z,99711.21
2018-12-02T16:59:34.054Z,99699.98
2018-12-02T17:02:06.711Z,99706.89
2018-12-02T17:04:36.027Z,99707.35
2018-12-02T17:07:05.431Z,99716.83
2018-12-02T17:09:34.711Z,99715.12
2018-12-02T17:12:05.966Z,99713.41
2018-12-02T17:14:38.731Z,99715.55
2018-12-02T17:17:05.216Z,99718.91
2018-12-02T17:19:34.459Z,99719.95
2018-12-02T17:22:03.665Z,99718.34
2018-12-02T17:24:33.574Z,99708.93
2018-12-02T17:27:03.384Z,99712.91
2018-12-02T17:29:32.628Z,99704.74
2018-12-02T17:32:10.880Z,99708.91
2018-12-02T17:34:41.856Z,99716.06
2018-12-02T17:37:12.590Z,99714.91
2018-12-02T17:39:45.934Z,99721.55
2018-12-02T17:42:15.685Z,99716.36
2018-12-02T17:44:45.440Z,99722.91
2018-12-02T17:47:15.050Z,99726.70
2018-12-02T17:49:44.734Z,99734.23
2018-12-02T17:52:14.067Z,99731.69
2018-12-02T17:54:43.299Z,99740.93
2018-12-02T17:57:13.972Z,99740.14
2018-12-02T17:59:43.820Z,99736.93
2018-12-02T18:02:13.138Z,99750.44
2018-12-02T18:04:42.445Z,99750.27
2018-12-02T18:07:11.692Z,99759.25
2018-12-02T18:09:41.351Z,99754.59
2018-12-02T18:12:11.163Z,99767.98
2018-12-02T18:14:40.403Z,99767.64
2018-12-02T18:17:09.721Z,99771.18
2018-12-02T18:19:39.083Z,99773.70
2018-12-02T18:22:10.208Z,99773.97
2018-12-02T18:24:41.520Z,99788.17
2018-12-02T18:27:10.816Z,99784.02
2018-12-02T18:29:40.074Z,99786.05
2018-12-02T18:32:09.932Z,99786.27
2018-12-02T18:34:39.791Z,99796.91
2018-12-02T18:37:11.414Z,99791.05
2018-12-02T18:39:40.698Z,99786.25
2018-12-02T18:42:10.604Z,99792.06
2018-12-02T18:44:41.255Z,99790.80
2018-12-02T18:47:12.037Z,99783.04
2018-12-02T18:49:41.302Z,99791.04
2018-12-02T18:52:10.604Z,99794.65
2018-12-02T18:54:40.748Z,99786.75
2018-12-02T18:57:09.510Z,99790.59
2018-12-02T18:59:38.851Z,99789.52
2018-12-02T19:02:08.354Z,99779.70
2018-12-02T19:04:37.687Z,99790.96
2018-12-02T19:07:08.782Z,99788.00
2018-12-02T19:09:38.319Z,99792.75
2018-12-02T19:12:07.843Z,99793.59
2018-12-02T19:14:37.434Z,99793.77
2018-12-02T19:17:06.834Z,99783.61
2018-12-02T19:19:36.888Z,99777.31
2018-12-02T19:22:07.282Z,99786.47
2018-12-02T19:24:36.567Z,99787.31
2018-12-02T19:27:07.467Z,99788.73
2018-12-02T19:29:37.771Z,99782.12
2018-12-02T19:32:07.046Z,99779.09
2018-12-02T19:34:36.354Z,99781.36
2018-12-02T19:37:08.088Z,99777.59
2018-12-02T19:39:37.809Z,99780.95
2018-12-02T19:42:08.172Z,99784.09
2018-12-02T19:44:37.439Z,99788.36
2018-12-02T19:47:07.177Z,99785.77
2018-12-02T19:49:36.405Z,99777.05
2018-12-02T19:52:07.252Z,99780.73
2018-12-02T19:54:36.729Z,99788.44
2018-12-02T19:57:06.479Z,99779.63
2018-12-02T19:59:36.012Z,99778.53
2018-12-02T20:02:06.126Z,99769.23
2018-12-02T20:04:36.762Z,99769.45
2018-12-02T20:07:06.487Z,99766.52
2018-12-02T20:09:35.932Z,99761.72
2018-12-02T20:12:05.778Z,99759.69
2018-12-02T20:14:36.261Z,99756.84
2018-12-02T20:17:05.746Z,99759.16
2018-12-02T20:19:40.546Z,99760.18
2018-12-02T20:22:09.757Z,99759.86
2018-12-02T20:24:41.783Z,99761.84
2018-12-02T20:27:12.280Z,99764.66
2018-12-02T20:29:41.493Z,99761.04
2018-12-02T20:32:12.242Z,99760.26
2018-12-02T20:34:42.390Z,99757.81
2018-12-02T20:37:11.577Z,99752.84
2018-12-02T20:39:43.085Z,99756.94
2018-12-02T20:42:12.292Z,99750.94
2018-12-02T20:44:41.953Z,99749.25
2018-12-02T20:47:11.263Z,99736.58
2018-12-02T20:49:40.456Z,99742.39
2018-12-02T20:52:10.072Z,99730.73
2018-12-02T20:54:39.286Z,99731.40
2018-12-02T20:57:10.289Z,99731.75
2018-12-02T20:59:39.455Z,99726.91
2018-12-02T21:02:08.703Z,99724.84
2018-12-02T21:04:37.973Z,99725.70
2018-12-02T21:07:07.205Z,99722.73
2018-12-02T21:09:37.264Z,99720.66
2018-12-02T21:12:06.675Z,99710.14
2018-12-02T21:14:35.964Z,99721.38
2018-12-02T21:17:06.215Z,99715.73
2018-12-02T21:19:35.396Z,99722.39
2018-12-02T21:22:06.909Z,99721.33
2018-12-02T21:24:36.143Z,99718.39
2018-12-02T21:27:05.717Z,99716.44
2018-12-02T21:29:35.052Z,99722.27
2018-12-02T21:32:04.878Z,99716.58
2018-12-02T21:34:34.610Z,99715.56
2018-12-02T21:37:03.884Z,99715.41
2018-12-02T21:39:33.091Z,99716.34
2018-12-02T21:42:02.290Z,99711.63
2018-12-02T21:44:33.649Z,99701.71
2018-12-02T21:47:02.947Z,99696.05
2018-12-02T21:49:32.127Z,99696.17
2018-12-02T21:52:01.513Z,99700.02
2018-12-02T21:54:30.698Z,99703.16
2018-12-02T21:57:00.951Z,99699.62
2018-12-02T21:59:30.164Z,99705.33
2018-12-02T22:01:59.686Z,99711.17
2018-12-02T22:04:28.931Z,99708.23
2018-12-02T22:06:58.339Z,99697.25
2018-12-02T22:09:30.286Z,99701.16
2018-12-02T22:11:59.528Z,99699.45
2018-12-02T22:14:28.907Z,99696.89
2018-12-02T22:16:58.237Z,99700.51
2018-12-02T22:19:27.963Z,99704.34
2018-12-02T22:21:57.664Z,99711.50
2018-12-02T22:24:26.920Z,99719.89
2018-12-02T22:26:56.118Z,99714.17
2018-12-02T22:29:25.300Z,99712.16
2018-12-02T22:31:55.968Z,99703.47
2018-12-02T22:34:25.139Z,99708.16
2018-12-02T22:36:54.374Z,99704.91
2018-12-02T22:39:23.649Z,99711.09
2018-12-02T22:41:52.819Z,99698.53
2018-12-02T22:44:23.151Z,99700.15
2018-12-02T22:46:52.849Z,99709.97
2018-12-02T22:49:22.052Z,99703.20
2018-12-02T22:51:51.287Z,99709.59
2018-12-02T22:54:20.503Z,99702.94
2018-12-02T22:56:51.190Z,99694.98
2018-12-02T22:59:20.398Z,99704.30
2018-12-02T23:01:56.627Z,99695.55
2018-12-02T23:04:25.924Z,99709.11
2018-12-02T23:06:56.014Z,99717.20
2018-12-02T23:09:25.332Z,99718.55
2018-12-02T23:11:54.606Z,99730.28
2018-12-02T23:14:23.852Z,99724.61
2018-12-02T23:17:06.734Z,99720.81
2018-12-02T23:19:35.995Z,99714.08
2018-12-02T23:22:05.193Z,99712.25
2018-12-02T23:24:34.393Z,99708.82
2018-12-02T23:27:04.292Z,99711.10
2018-12-02T23:29:35.822Z,99705.38
2018-12-02T23:32:05.973Z,99698.20
2018-12-02T23:34:35.178Z,99698.73
2018-12-02T23:37:04.563Z,99691.92
2018-12-02T23:39:33.738Z,99666.97
2018-12-02T23:42:03.534Z,99675.78
2018-12-02T23:44:32.797Z,99676.36
2018-12-02T23:47:01.937Z,99678.16
2018-12-02T23:49:32.833Z,99671.77
2018-12-02T23:52:02.132Z,99680.39
2018-12-02T23:54:31.709Z,99680.69
2018-12-02T23:57:00.895Z,99684.59
2018-12-02T23:59:30.087Z,99680.34
